sensor_id;sensor_type;location;lat;lon;timestamp;pressure;altitude;pressure_sealevel;temperature;humidity
43364;BME280;40636;52.424;-1.948;2023-06-26T00:01:34;99888.06;;;14.56;100.00
43364;BME280;40636;52.424;-1.948;2023-06-26T00:04:25;99896.06;;;14.58;100.00
43364;BME280;40636;52.424;-1.948;2023-06-26T00:07:04;99898.00;;;14.52;100.00
43364;BME280;40636;52.424;-1.948;2023-06-26T00:09:33;99894.41;;;14.46;100.00
43364;BME280;40636;52.424;-1.948;2023-06-26T00:12:19;99897.44;;;14.45;100.00
43364;BME280;40636;52.424;-1.948;2023-06-26T00:16:01;99894.94;;;14.38;100.00
43364;BME280;40636;52.424;-1.948;2023-06-26T00:18:35;99890.81;;;14.41;100.00
43364;BME280;40636;52.424;-1.948;2023-06-26T00:21:05;99886.97;;;14.32;100.00
43364;BME280;40636;52.424;-1.948;2023-06-26T00:23:50;99890.84;;;14.31;100.00
43364;BME280;40636;52.424;-1.948;2023-06-26T00:26:27;99895.78;;;14.29;100.00
43364;BME280;40636;52.424;-1.948;2023-06-26T00:29:00;99890.56;;;14.27;100.00
43364;BME280;40636;52.424;-1.948;2023-06-26T00:31:27;99896.91;;;14.23;100.00
43364;BME280;40636;52.424;-1.948;2023-06-26T00:33:54;99894.41;;;14.16;100.00
43364;BME280;40636;52.424;-1.948;2023-06-26T00:36:30;99903.25;;;14.13;100.00
43364;BME280;40636;52.424;-1.948;2023-06-26T00:39:08;99899.91;;;14.11;100.00
43364;BME280;40636;52.424;-1.948;2023-06-26T00:42:34;99902.97;;;14.09;100.00
43364;BME280;40636;52.424;-1.948;2023-06-26T00:45:41;99907.09;;;14.07;100.00
43364;BME280;40636;52.424;-1.948;2023-06-26T00:48:21;99903.22;;;14.08;100.00
43364;BME280;40636;52.424;-1.948;2023-06-26T00:51:07;99910.66;;;14.02;100.00
43364;BME280;40636;52.424;-1.948;2023-06-26T00:54:25;99907.91;;;14.02;100.00
43364;BME280;40636;52.424;-1.948;2023-06-26T00:58:25;99918.94;;;13.97;100.00
43364;BME280;40636;52.424;-1.948;2023-06-26T01:02:02;99914.53;;;13.91;100.00
43364;BME280;40636;52.424;-1.948;2023-06-26T01:04:36;99911.78;;;13.91;100.00
43364;BME280;40636;52.424;-1.948;2023-06-26T01:07:12;99906.78;;;13.93;100.00
43364;BME280;40636;52.424;-1.948;2023-06-26T01:14:08;99910.94;;;13.85;100.00
43364;BME280;40636;52.424;-1.948;2023-06-26T01:20:32;99920.03;;;13.86;100.00
43364;BME280;40636;52.424;-1.948;2023-06-26T01:23:26;99920.56;;;13.78;100.00
43364;BME280;40636;52.424;-1.948;2023-06-26T01:27:14;99929.97;;;13.77;100.00
43364;BME280;40636;52.424;-1.948;2023-06-26T01:30:02;99929.97;;;13.77;100.00
43364;BME280;40636;52.424;-1.948;2023-06-26T01:32:44;99925.25;;;13.72;100.00
43364;BME280;40636;52.424;-1.948;2023-06-26T01:35:16;99931.31;;;13.74;100.00
43364;BME280;40636;52.424;-1.948;2023-06-26T01:37:43;99930.78;;;13.77;100.00
43364;BME280;40636;52.424;-1.948;2023-06-26T01:40:13;99929.38;;;13.75;100.00
43364;BME280;40636;52.424;-1.948;2023-06-26T01:42:40;99931.03;;;13.76;100.00
43364;BME280;40636;52.424;-1.948;2023-06-26T01:45:27;99928.00;;;13.72;100.00
43364;BME280;40636;52.424;-1.948;2023-06-26T01:47:57;99932.66;;;13.71;100.00
43364;BME280;40636;52.424;-1.948;2023-06-26T01:50:28;99926.91;;;13.68;100.00
43364;BME280;40636;52.424;-1.948;2023-06-26T01:54:08;99928.78;;;13.62;100.00
43364;BME280;40636;52.424;-1.948;2023-06-26T01:58:06;99942.03;;;13.65;100.00
43364;BME280;40636;52.424;-1.948;2023-06-26T02:00:38;99943.69;;;13.66;100.00
43364;BME280;40636;52.424;-1.948;2023-06-26T02:03:08;99948.13;;;13.67;100.00
43364;BME280;40636;52.424;-1.948;2023-06-26T02:05:44;99940.94;;;13.66;100.00
43364;BME280;40636;52.424;-1.948;2023-06-26T02:08:32;99939.00;;;13.62;100.00
43364;BME280;40636;52.424;-1.948;2023-06-26T02:11:08;99943.44;;;13.68;100.00
43364;BME280;40636;52.424;-1.948;2023-06-26T02:13:35;99943.44;;;13.63;100.00
43364;BME280;40636;52.424;-1.948;2023-06-26T02:16:02;99936.50;;;13.60;100.00
43364;BME280;40636;52.424;-1.948;2023-06-26T02:18:29;99945.59;;;13.56;100.00
43364;BME280;40636;52.424;-1.948;2023-06-26T02:20:56;99953.03;;;13.55;100.00
43364;BME280;40636;52.424;-1.948;2023-06-26T02:31:23;99961.81;;;13.47;100.00
43364;BME280;40636;52.424;-1.948;2023-06-26T02:33:50;99962.63;;;13.37;100.00
43364;BME280;40636;52.424;-1.948;2023-06-26T02:36:19;99964.56;;;13.42;100.00
43364;BME280;40636;52.424;-1.948;2023-06-26T02:38:52;99965.69;;;13.41;100.00
43364;BME280;40636;52.424;-1.948;2023-06-26T02:41:18;99965.09;;;13.39;100.00
43364;BME280;40636;52.424;-1.948;2023-06-26T02:43:45;99969.22;;;13.31;100.00
43364;BME280;40636;52.424;-1.948;2023-06-26T02:46:12;99965.63;;;13.31;100.00
43364;BME280;40636;52.424;-1.948;2023-06-26T02:48:39;99967.81;;;13.29;100.00
43364;BME280;40636;52.424;-1.948;2023-06-26T02:51:12;99965.59;;;13.26;100.00
43364;BME280;40636;52.424;-1.948;2023-06-26T02:53:39;99956.75;;;13.24;100.00
43364;BME280;40636;52.424;-1.948;2023-06-26T02:56:06;99966.34;;;13.21;100.00
43364;BME280;40636;52.424;-1.948;2023-06-26T02:59:06;99955.06;;;13.17;100.00
43364;BME280;40636;52.424;-1.948;2023-06-26T03:01:33;99966.59;;;13.09;100.00
43364;BME280;40636;52.424;-1.948;2023-06-26T03:04:00;99966.59;;;13.09;100.00
43364;BME280;40636;52.424;-1.948;2023-06-26T03:06:27;99965.72;;;13.04;100.00
43364;BME280;40636;52.424;-1.948;2023-06-26T03:08:54;99975.06;;;13.03;100.00
43364;BME280;40636;52.424;-1.948;2023-06-26T03:11:21;99967.91;;;13.02;100.00
43364;BME280;40636;52.424;-1.948;2023-06-26T03:13:50;99970.63;;;12.97;100.00
43364;BME280;40636;52.424;-1.948;2023-06-26T03:16:20;99968.72;;;13.02;100.00
43364;BME280;40636;52.424;-1.948;2023-06-26T03:19:12;99970.38;;;13.03;100.00
43364;BME280;40636;52.424;-1.948;2023-06-26T03:21:42;99965.72;;;13.04;100.00
43364;BME280;40636;52.424;-1.948;2023-06-26T03:24:14;99972.88;;;13.05;100.00
43364;BME280;40636;52.424;-1.948;2023-06-26T03:31:40;99996.06;;;13.09;100.00
43364;BME280;40636;52.424;-1.948;2023-06-26T03:34:23;100001.28;;;13.10;100.00
43364;BME280;40636;52.424;-1.948;2023-06-26T03:37:04;99997.44;;;13.11;100.00
43364;BME280;40636;52.424;-1.948;2023-06-26T03:39:32;100013.16;;;13.16;100.00
43364;BME280;40636;52.424;-1.948;2023-06-26T03:41:59;100011.53;;;13.15;100.00
43364;BME280;40636;52.424;-1.948;2023-06-26T03:44:33;100017.03;;;13.15;100.00
43364;BME280;40636;52.424;-1.948;2023-06-26T03:47:13;100011.81;;;13.18;100.00
43364;BME280;40636;52.424;-1.948;2023-06-26T03:50:12;100018.50;;;13.23;100.00
43364;BME280;40636;52.424;-1.948;2023-06-26T04:00:48;100032.22;;;13.17;100.00
43364;BME280;40636;52.424;-1.948;2023-06-26T04:04:01;100028.41;;;13.24;100.00
43364;BME280;40636;52.424;-1.948;2023-06-26T04:06:56;100022.94;;;13.29;100.00
43364;BME280;40636;52.424;-1.948;2023-06-26T04:13:26;100028.78;;;13.37;100.00
43364;BME280;40636;52.424;-1.948;2023-06-26T04:15:58;100024.66;;;13.40;100.00
43364;BME280;40636;52.424;-1.948;2023-06-26T04:18:25;100028.00;;;13.47;100.00
43364;BME280;40636;52.424;-1.948;2023-06-26T04:21:09;100034.34;;;13.53;100.00
43364;BME280;40636;52.424;-1.948;2023-06-26T04:23:47;100035.19;;;13.53;100.00
43364;BME280;40636;52.424;-1.948;2023-06-26T04:26:14;100035.50;;;13.62;100.00
43364;BME280;40636;52.424;-1.948;2023-06-26T04:28:41;100030.88;;;13.67;100.00
43364;BME280;40636;52.424;-1.948;2023-06-26T04:31:18;100036.41;;;13.73;100.00
43364;BME280;40636;52.424;-1.948;2023-06-26T04:33:59;100041.94;;;13.83;100.00
43364;BME280;40636;52.424;-1.948;2023-06-26T04:36:41;100049.72;;;13.91;100.00
43364;BME280;40636;52.424;-1.948;2023-06-26T04:39:33;100050.28;;;14.03;100.00
43364;BME280;40636;52.424;-1.948;2023-06-26T04:42:14;100043.69;;;13.99;100.00
43364;BME280;40636;52.424;-1.948;2023-06-26T04:45:09;100048.63;;;14.02;100.00
43364;BME280;40636;52.424;-1.948;2023-06-26T04:47:36;100044.22;;;14.06;100.00
43364;BME280;40636;52.424;-1.948;2023-06-26T04:50:03;100042.00;;;14.03;100.00
43364;BME280;40636;52.424;-1.948;2023-06-26T04:53:09;100044.75;;;14.03;100.00
43364;BME280;40636;52.424;-1.948;2023-06-26T04:56:18;100062.44;;;14.02;100.00
43364;BME280;40636;52.424;-1.948;2023-06-26T04:58:52;100062.09;;;13.88;100.00
43364;BME280;40636;52.424;-1.948;2023-06-26T05:01:19;100069.56;;;13.88;100.00
43364;BME280;40636;52.424;-1.948;2023-06-26T05:04:12;100073.13;;;13.88;100.00
43364;BME280;40636;52.424;-1.948;2023-06-26T05:07:43;100080.56;;;13.83;100.00
43364;BME280;40636;52.424;-1.948;2023-06-26T05:10:23;100084.72;;;13.85;100.00
43364;BME280;40636;52.424;-1.948;2023-06-26T05:13:42;100082.25;;;13.89;100.00
43364;BME280;40636;52.424;-1.948;2023-06-26T05:16:17;100085.59;;;13.96;100.00
43364;BME280;40636;52.424;-1.948;2023-06-26T05:18:51;100086.19;;;14.08;100.00
43364;BME280;40636;52.424;-1.948;2023-06-26T05:21:18;100088.38;;;14.06;100.00
43364;BME280;40636;52.424;-1.948;2023-06-26T05:24:15;100093.09;;;14.16;100.00
43364;BME280;40636;52.424;-1.948;2023-06-26T05:26:52;100100.06;;;14.29;100.00
43364;BME280;40636;52.424;-1.948;2023-06-26T05:32:25;100106.25;;;14.71;100.00
43364;BME280;40636;52.424;-1.948;2023-06-26T05:37:58;100112.63;;;14.77;100.00
43364;BME280;40636;52.424;-1.948;2023-06-26T05:43:49;100126.16;;;14.68;100.00
43364;BME280;40636;52.424;-1.948;2023-06-26T05:46:30;100118.69;;;14.69;100.00
43364;BME280;40636;52.424;-1.948;2023-06-26T05:49:03;100115.69;;;14.86;100.00
43364;BME280;40636;52.424;-1.948;2023-06-26T05:51:35;100126.44;;;14.97;100.00
43364;BME280;40636;52.424;-1.948;2023-06-26T05:54:03;100134.47;;;15.14;100.00
43364;BME280;40636;52.424;-1.948;2023-06-26T05:57:09;100140.56;;;15.32;100.00
43364;BME280;40636;52.424;-1.948;2023-06-26T05:59:40;100138.91;;;15.41;100.00
43364;BME280;40636;52.424;-1.948;2023-06-26T06:02:07;100129.19;;;15.48;100.00
43364;BME280;40636;52.424;-1.948;2023-06-26T06:04:48;100136.13;;;15.51;100.00
43364;BME280;40636;52.424;-1.948;2023-06-26T06:07:36;100136.09;;;15.56;100.00
43364;BME280;40636;52.424;-1.948;2023-06-26T06:10:26;100133.91;;;15.73;100.00
43364;BME280;40636;52.424;-1.948;2023-06-26T06:13:44;100136.59;;;15.99;100.00
43364;BME280;40636;52.424;-1.948;2023-06-26T06:16:17;100139.59;;;16.08;100.00
43364;BME280;40636;52.424;-1.948;2023-06-26T06:18:44;100126.03;;;16.06;100.00
43364;BME280;40636;52.424;-1.948;2023-06-26T06:21:11;100134.31;;;16.11;100.00
43364;BME280;40636;52.424;-1.948;2023-06-26T06:23:37;100128.78;;;16.21;100.00
43364;BME280;40636;52.424;-1.948;2023-06-26T06:26:47;100125.41;;;16.24;100.00
43364;BME280;40636;52.424;-1.948;2023-06-26T06:29:14;100143.41;;;16.27;100.00
43364;BME280;40636;52.424;-1.948;2023-06-26T06:32:21;100135.38;;;16.26;100.00
43364;BME280;40636;52.424;-1.948;2023-06-26T06:34:48;100142.28;;;16.33;100.00
43364;BME280;40636;52.424;-1.948;2023-06-26T06:37:21;100146.06;;;16.47;100.00
43364;BME280;40636;52.424;-1.948;2023-06-26T06:39:48;100151.34;;;16.49;100.00
43364;BME280;40636;52.424;-1.948;2023-06-26T06:42:15;100156.00;;;16.59;100.00
43364;BME280;40636;52.424;-1.948;2023-06-26T06:44:42;100152.97;;;16.55;100.00
43364;BME280;40636;52.424;-1.948;2023-06-26T06:47:08;100158.78;;;16.59;100.00
43364;BME280;40636;52.424;-1.948;2023-06-26T06:49:35;100154.56;;;16.71;100.00
43364;BME280;40636;52.424;-1.948;2023-06-26T06:52:02;100152.59;;;16.77;100.00
43364;BME280;40636;52.424;-1.948;2023-06-26T06:54:51;100167.78;;;16.90;100.00
43364;BME280;40636;52.424;-1.948;2023-06-26T06:57:19;100167.50;;;16.86;100.00
43364;BME280;40636;52.424;-1.948;2023-06-26T06:59:47;100178.31;;;16.88;100.00
43364;BME280;40636;52.424;-1.948;2023-06-26T07:02:25;100183.78;;;16.98;100.00
43364;BME280;40636;52.424;-1.948;2023-06-26T07:04:52;100187.88;;;17.06;100.00
43364;BME280;40636;52.424;-1.948;2023-06-26T07:07:19;100178.44;;;17.07;100.00
43364;BME280;40636;52.424;-1.948;2023-06-26T07:09:46;100189.78;;;17.10;100.00
43364;BME280;40636;52.424;-1.948;2023-06-26T07:12:20;100190.28;;;17.22;100.00
43364;BME280;40636;52.424;-1.948;2023-06-26T07:14:51;100197.44;;;17.29;100.00
43364;BME280;40636;52.424;-1.948;2023-06-26T07:17:39;100195.94;;;17.41;100.00
43364;BME280;40636;52.424;-1.948;2023-06-26T07:20:06;100190.00;;;17.53;100.00
43364;BME280;40636;52.424;-1.948;2023-06-26T07:22:36;100198.88;;;17.55;100.00
43364;BME280;40636;52.424;-1.948;2023-06-26T07:28:59;100205.09;;;17.71;100.00
43364;BME280;40636;52.424;-1.948;2023-06-26T07:31:29;100214.09;;;17.23;100.00
43364;BME280;40636;52.424;-1.948;2023-06-26T07:33:58;100210.81;;;17.21;100.00
43364;BME280;40636;52.424;-1.948;2023-06-26T07:36:25;100213.78;;;17.30;100.00
43364;BME280;40636;52.424;-1.948;2023-06-26T07:38:52;100206.63;;;17.58;100.00
43364;BME280;40636;52.424;-1.948;2023-06-26T07:41:28;100212.59;;;17.70;100.00
43364;BME280;40636;52.424;-1.948;2023-06-26T07:43:58;100204.59;;;17.98;100.00
43364;BME280;40636;52.424;-1.948;2023-06-26T07:46:25;100208.16;;;18.04;100.00
43364;BME280;40636;52.424;-1.948;2023-06-26T07:48:53;100214.94;;;18.21;100.00
43364;BME280;40636;52.424;-1.948;2023-06-26T07:51:21;100210.97;;;17.98;100.00
43364;BME280;40636;52.424;-1.948;2023-06-26T07:53:50;100211.38;;;17.87;100.00
43364;BME280;40636;52.424;-1.948;2023-06-26T07:56:20;100215.03;;;17.82;100.00
43364;BME280;40636;52.424;-1.948;2023-06-26T07:58:48;100227.84;;;17.78;100.00
43364;BME280;40636;52.424;-1.948;2023-06-26T08:01:16;100227.03;;;17.78;100.00
43364;BME280;40636;52.424;-1.948;2023-06-26T08:03:45;100242.06;;;17.71;100.00
43364;BME280;40636;52.424;-1.948;2023-06-26T08:06:13;100238.97;;;17.73;100.00
43364;BME280;40636;52.424;-1.948;2023-06-26T08:08:42;100240.34;;;17.75;100.00
43364;BME280;40636;52.424;-1.948;2023-06-26T08:11:09;100246.00;;;17.60;100.00
43364;BME280;40636;52.424;-1.948;2023-06-26T08:13:37;100237.16;;;17.58;100.00
43364;BME280;40636;52.424;-1.948;2023-06-26T08:16:07;100237.19;;;17.53;100.00
43364;BME280;40636;52.424;-1.948;2023-06-26T08:18:35;100230.56;;;17.49;100.00
43364;BME280;40636;52.424;-1.948;2023-06-26T08:21:16;100226.53;;;17.65;100.00
43364;BME280;40636;52.424;-1.948;2023-06-26T08:23:44;100226.19;;;18.06;100.00
43364;BME280;40636;52.424;-1.948;2023-06-26T08:26:13;100230.66;;;18.31;100.00
43364;BME280;40636;52.424;-1.948;2023-06-26T08:28:41;100229.81;;;18.31;100.00
43364;BME280;40636;52.424;-1.948;2023-06-26T08:31:10;100246.13;;;18.37;100.00
43364;BME280;40636;52.424;-1.948;2023-06-26T08:33:38;100242.22;;;18.38;100.00
43364;BME280;40636;52.424;-1.948;2023-06-26T08:36:06;100238.97;;;18.55;100.00
43364;BME280;40636;52.424;-1.948;2023-06-26T08:38:34;100229.81;;;18.55;100.00
43364;BME280;40636;52.424;-1.948;2023-06-26T08:41:03;100241.16;;;18.58;100.00
43364;BME280;40636;52.424;-1.948;2023-06-26T08:43:34;100232.59;;;18.79;100.00
43364;BME280;40636;52.424;-1.948;2023-06-26T08:46:03;100246.34;;;18.89;100.00
43364;BME280;40636;52.424;-1.948;2023-06-26T08:48:34;100247.16;;;18.70;100.00
43364;BME280;40636;52.424;-1.948;2023-06-26T08:51:13;100242.16;;;18.67;100.00
43364;BME280;40636;52.424;-1.948;2023-06-26T08:53:55;100249.28;;;18.79;100.00
43364;BME280;40636;52.424;-1.948;2023-06-26T08:56:28;100248.78;;;18.95;100.00
43364;BME280;40636;52.424;-1.948;2023-06-26T08:59:00;100246.28;;;18.94;100.00
43364;BME280;40636;52.424;-1.948;2023-06-26T09:01:29;100245.59;;;19.02;100.00
43364;BME280;40636;52.424;-1.948;2023-06-26T09:03:58;100241.59;;;18.89;100.00
43364;BME280;40636;52.424;-1.948;2023-06-26T09:06:27;100248.22;;;18.93;100.00
43364;BME280;40636;52.424;-1.948;2023-06-26T09:12:46;100253.22;;;18.48;100.00
43364;BME280;40636;52.424;-1.948;2023-06-26T09:18:20;100251.00;;;18.74;100.00
43364;BME280;40636;52.424;-1.948;2023-06-26T09:25:38;100253.53;;;19.14;100.00
43364;BME280;40636;52.424;-1.948;2023-06-26T09:28:32;100247.06;;;18.75;100.00
43364;BME280;40636;52.424;-1.948;2023-06-26T09:31:05;100265.56;;;18.61;100.00
43364;BME280;40636;52.424;-1.948;2023-06-26T09:33:36;100272.63;;;18.54;100.00
43364;BME280;40636;52.424;-1.948;2023-06-26T09:36:09;100262.09;;;18.27;100.00
43364;BME280;40636;52.424;-1.948;2023-06-26T09:38:47;100256.16;;;18.33;100.00
43364;BME280;40636;52.424;-1.948;2023-06-26T09:41:17;100255.59;;;18.36;100.00
43364;BME280;40636;52.424;-1.948;2023-06-26T09:43:47;100261.91;;;18.42;100.00
43364;BME280;40636;52.424;-1.948;2023-06-26T09:46:27;100255.41;;;18.28;100.00
43364;BME280;40636;52.424;-1.948;2023-06-26T09:49:47;100273.09;;;18.37;100.00
43364;BME280;40636;52.424;-1.948;2023-06-26T09:52:44;100268.13;;;18.58;100.00
43364;BME280;40636;52.424;-1.948;2023-06-26T09:56:05;100271.38;;;18.89;100.00
43364;BME280;40636;52.424;-1.948;2023-06-26T09:58:36;100271.13;;;19.09;100.00
43364;BME280;40636;52.424;-1.948;2023-06-26T10:01:14;100276.44;;;19.06;100.00
43364;BME280;40636;52.424;-1.948;2023-06-26T10:03:43;100276.75;;;19.04;100.00
43364;BME280;40636;52.424;-1.948;2023-06-26T10:06:12;100271.19;;;19.04;100.00
43364;BME280;40636;52.424;-1.948;2023-06-26T10:08:42;100271.34;;;19.13;100.00
43364;BME280;40636;52.424;-1.948;2023-06-26T10:11:19;100269.41;;;19.32;100.00
43364;BME280;40636;52.424;-1.948;2023-06-26T10:13:51;100264.22;;;19.44;100.00
43364;BME280;40636;52.424;-1.948;2023-06-26T10:16:43;100261.94;;;19.65;100.00
43364;BME280;40636;52.424;-1.948;2023-06-26T10:19:13;100276.13;;;19.83;100.00
43364;BME280;40636;52.424;-1.948;2023-06-26T10:21:42;100281.72;;;19.83;100.00
43364;BME280;40636;52.424;-1.948;2023-06-26T10:32:54;100293.16;;;19.24;100.00
43364;BME280;40636;52.424;-1.948;2023-06-26T10:35:24;100290.03;;;19.07;100.00
43364;BME280;40636;52.424;-1.948;2023-06-26T10:38:02;100290.09;;;19.26;100.00
43364;BME280;40636;52.424;-1.948;2023-06-26T10:40:42;100292.00;;;19.07;100.00
43364;BME280;40636;52.424;-1.948;2023-06-26T10:43:12;100294.94;;;19.15;100.00
43364;BME280;40636;52.424;-1.948;2023-06-26T10:45:48;100294.38;;;19.37;100.00
43364;BME280;40636;52.424;-1.948;2023-06-26T10:48:29;100294.66;;;19.36;100.00
43364;BME280;40636;52.424;-1.948;2023-06-26T10:51:13;100312.13;;;19.22;100.00
43364;BME280;40636;52.424;-1.948;2023-06-26T10:55:00;100296.56;;;19.21;100.00
43364;BME280;40636;52.424;-1.948;2023-06-26T10:57:35;100302.94;;;19.41;100.00
43364;BME280;40636;52.424;-1.948;2023-06-26T11:00:22;100316.19;;;19.49;100.00
43364;BME280;40636;52.424;-1.948;2023-06-26T11:02:51;100301.28;;;19.59;100.00
43364;BME280;40636;52.424;-1.948;2023-06-26T11:05:32;100302.03;;;19.83;100.00
43364;BME280;40636;52.424;-1.948;2023-06-26T11:08:04;100303.63;;;19.70;100.00
43364;BME280;40636;52.424;-1.948;2023-06-26T11:10:54;100304.34;;;19.62;100.00
43364;BME280;40636;52.424;-1.948;2023-06-26T11:13:27;100313.56;;;19.58;100.00
43364;BME280;40636;52.424;-1.948;2023-06-26T11:15:56;100300.16;;;19.22;100.00
43364;BME280;40636;52.424;-1.948;2023-06-26T11:18:25;100303.09;;;19.31;100.00
43364;BME280;40636;52.424;-1.948;2023-06-26T11:20:54;100303.31;;;19.34;100.00
43364;BME280;40636;52.424;-1.948;2023-06-26T11:27:13;100307.22;;;19.90;100.00
43364;BME280;40636;52.424;-1.948;2023-06-26T11:30:24;100313.41;;;20.33;100.00
43364;BME280;40636;52.424;-1.948;2023-06-26T11:33:01;100310.69;;;20.61;100.00
43364;BME280;40636;52.424;-1.948;2023-06-26T11:35:30;100312.28;;;20.81;100.00
43364;BME280;40636;52.424;-1.948;2023-06-26T11:38:00;100313.19;;;20.76;100.00
43364;BME280;40636;52.424;-1.948;2023-06-26T11:40:36;100317.63;;;20.91;100.00
43364;BME280;40636;52.424;-1.948;2023-06-26T11:43:06;100319.16;;;20.97;100.00
43364;BME280;40636;52.424;-1.948;2023-06-26T11:45:34;100317.59;;;21.18;100.00
43364;BME280;40636;52.424;-1.948;2023-06-26T11:51:08;100322.06;;;20.92;100.00
43364;BME280;40636;52.424;-1.948;2023-06-26T11:53:43;100328.19;;;21.08;100.00
43364;BME280;40636;52.424;-1.948;2023-06-26T11:56:14;100322.47;;;21.13;100.00
43364;BME280;40636;52.424;-1.948;2023-06-26T11:59:18;100327.44;;;20.74;96.82
43364;BME280;40636;52.424;-1.948;2023-06-26T12:01:46;100322.06;;;20.50;100.00
43364;BME280;40636;52.424;-1.948;2023-06-26T12:04:16;100327.31;;;20.52;100.00
43364;BME280;40636;52.424;-1.948;2023-06-26T12:06:52;100320.88;;;20.38;100.00
43364;BME280;40636;52.424;-1.948;2023-06-26T12:09:27;100321.91;;;20.42;100.00
43364;BME280;40636;52.424;-1.948;2023-06-26T12:11:56;100322.13;;;20.45;100.00
43364;BME280;40636;52.424;-1.948;2023-06-26T12:14:25;100317.44;;;20.73;100.00
43364;BME280;40636;52.424;-1.948;2023-06-26T12:17:04;100320.44;;;20.91;100.00
43364;BME280;40636;52.424;-1.948;2023-06-26T12:19:37;100326.00;;;21.05;97.98
43364;BME280;40636;52.424;-1.948;2023-06-26T12:22:08;100331.97;;;20.98;93.66
43364;BME280;40636;52.424;-1.948;2023-06-26T12:24:38;100320.75;;;20.89;94.04
43364;BME280;40636;52.424;-1.948;2023-06-26T12:27:12;100322.78;;;20.84;93.80
43364;BME280;40636;52.424;-1.948;2023-06-26T12:29:51;100322.38;;;21.04;99.21
43364;BME280;40636;52.424;-1.948;2023-06-26T12:36:00;100315.47;;;20.88;88.75
43364;BME280;40636;52.424;-1.948;2023-06-26T12:38:35;100323.81;;;20.60;91.44
43364;BME280;40636;52.424;-1.948;2023-06-26T12:41:04;100323.41;;;20.53;94.97
43364;BME280;40636;52.424;-1.948;2023-06-26T12:43:38;100329.81;;;20.54;98.45
43364;BME280;40636;52.424;-1.948;2023-06-26T12:46:06;100333.34;;;20.26;98.04
43364;BME280;40636;52.424;-1.948;2023-06-26T12:48:44;100334.44;;;20.25;93.86
43364;BME280;40636;52.424;-1.948;2023-06-26T12:51:16;100336.19;;;19.89;97.50
43364;BME280;40636;52.424;-1.948;2023-06-26T12:53:45;100342.00;;;19.92;97.79
43364;BME280;40636;52.424;-1.948;2023-06-26T12:56:13;100342.91;;;19.88;97.07
43364;BME280;40636;52.424;-1.948;2023-06-26T12:58:44;100330.75;;;19.97;99.79
43364;BME280;40636;52.424;-1.948;2023-06-26T13:01:12;100348.56;;;19.83;98.96
43364;BME280;40636;52.424;-1.948;2023-06-26T13:03:44;100339.94;;;19.98;92.15
43364;BME280;40636;52.424;-1.948;2023-06-26T13:06:13;100339.38;;;20.15;97.37
43364;BME280;40636;52.424;-1.948;2023-06-26T13:08:42;100347.78;;;20.28;94.39
43364;BME280;40636;52.424;-1.948;2023-06-26T13:11:11;100336.88;;;20.46;93.12
43364;BME280;40636;52.424;-1.948;2023-06-26T13:13:40;100339.13;;;20.76;92.71
43364;BME280;40636;52.424;-1.948;2023-06-26T13:16:08;100327.97;;;21.04;91.22
43364;BME280;40636;52.424;-1.948;2023-06-26T13:18:36;100330.66;;;20.95;87.96
43364;BME280;40636;52.424;-1.948;2023-06-26T13:21:04;100331.69;;;20.99;85.87
43364;BME280;40636;52.424;-1.948;2023-06-26T13:23:35;100342.94;;;21.08;86.58
43364;BME280;40636;52.424;-1.948;2023-06-26T13:26:04;100323.59;;;20.98;87.32
43364;BME280;40636;52.424;-1.948;2023-06-26T13:28:35;100333.75;;;21.21;85.74
43364;BME280;40636;52.424;-1.948;2023-06-26T13:31:04;100324.72;;;21.38;87.62
43364;BME280;40636;52.424;-1.948;2023-06-26T13:33:33;100318.97;;;21.57;90.05
43364;BME280;40636;52.424;-1.948;2023-06-26T13:36:01;100321.72;;;21.71;87.59
43364;BME280;40636;52.424;-1.948;2023-06-26T13:38:34;100327.75;;;21.64;89.88
43364;BME280;40636;52.424;-1.948;2023-06-26T13:41:02;100325.22;;;21.54;85.50
43364;BME280;40636;52.424;-1.948;2023-06-26T13:43:30;100328.38;;;21.61;86.89
43364;BME280;40636;52.424;-1.948;2023-06-26T13:46:08;100322.25;;;21.73;84.32
43364;BME280;40636;52.424;-1.948;2023-06-26T13:48:36;100337.06;;;21.96;84.60
43364;BME280;40636;52.424;-1.948;2023-06-26T13:51:04;100325.75;;;22.01;86.30
43364;BME280;40636;52.424;-1.948;2023-06-26T13:53:33;100326.38;;;21.98;83.07
43364;BME280;40636;52.424;-1.948;2023-06-26T13:56:01;100337.53;;;22.12;86.01
43364;BME280;40636;52.424;-1.948;2023-06-26T13:58:29;100328.41;;;22.06;80.84
43364;BME280;40636;52.424;-1.948;2023-06-26T14:01:00;100327.34;;;22.16;83.33
43364;BME280;40636;52.424;-1.948;2023-06-26T14:03:31;100330.00;;;22.12;80.37
43364;BME280;40636;52.424;-1.948;2023-06-26T14:06:01;100344.94;;;22.16;81.70
43364;BME280;40636;52.424;-1.948;2023-06-26T14:08:29;100336.59;;;22.02;79.58
43364;BME280;40636;52.424;-1.948;2023-06-26T14:10:57;100336.16;;;21.64;81.62
43364;BME280;40636;52.424;-1.948;2023-06-26T14:13:32;100352.09;;;21.64;80.99
43364;BME280;40636;52.424;-1.948;2023-06-26T14:16:00;100336.59;;;21.58;80.47
43364;BME280;40636;52.424;-1.948;2023-06-26T14:18:27;100335.53;;;21.67;82.38
43364;BME280;40636;52.424;-1.948;2023-06-26T14:20:54;100346.66;;;21.45;82.32
43364;BME280;40636;52.424;-1.948;2023-06-26T14:23:22;100351.59;;;21.20;85.17
43364;BME280;40636;52.424;-1.948;2023-06-26T14:25:52;100343.69;;;21.00;83.64
43364;BME280;40636;52.424;-1.948;2023-06-26T14:28:21;100344.59;;;20.95;84.08
43364;BME280;40636;52.424;-1.948;2023-06-26T14:30:48;100345.41;;;21.10;87.57
43364;BME280;40636;52.424;-1.948;2023-06-26T14:33:16;100340.97;;;21.36;87.29
43364;BME280;40636;52.424;-1.948;2023-06-26T14:35:44;100342.56;;;21.65;83.91
43364;BME280;40636;52.424;-1.948;2023-06-26T14:38:11;100343.44;;;21.38;82.95